Airfield :
LOGIN :

Register | Disclaimer

   EN    FR    IT 

 










Legend :    VFR   Marginal VFR   IFR   Intensive IFR   Very Intensive IFR
Visi :
Ceiling :
>= 8 km
>= 3000ft
5 to 8 km
1000 to 3000 ft
1500m to 5 km
500 to 1000 ft
800 to 1500m
200 to 500 ft
< 800m
< 200 ft
Symbols :   Thunderstorms  Fog  Heavy snow  Heavy precipitations  Wind > 20 kt
SIGMETs :     Misc.  Thunderstorms  Icing  Turbulence  Mountain Waves  Volcanic Ashes






- Airport Elevation : 1860 ft
- IATA code : GRX


LEGR - Granada

CURRENT METAR :
  • 152030Z 23003KT 9999 FEW040 SCT070 05/02 Q1009

EXPIRED METARs :
  • 152000Z VRB01KT 9999 FEW040 SCT070 05/02 Q1009
  • 151930Z 24004KT 9999 FEW040 SCT070 04/02 Q1008
  • 151900Z 26006KT 9999 FEW040 SCT070 05/02 Q1008
  • 151830Z 26006KT 9999 FEW040 SCT070 05/02 Q1008
  • 151800Z 25010KT 9999 FEW040 SCT070 05/02 Q1008

TAF TAF LEGR
Valid from the 15 at 21:00 until the 16 at 21:00 UTC


152000Z 1521/1621 VRB04KT 9999 FEW040 BKN060 TX11/1614Z TNM01/1607Z



MET'MAP, your aeronautical weather chart ! - Copyright ORBIFLY December 2007 - Disclaimer

ORBIFLY MET'MAP TEAM :

Programming & Development : Alexandra Zaïnal
Concept & Development : Baudouin d'Aumeries
Co-Development & Prog : Marc-Olivier Méhu
Technical & hardware support : Manuel Goepfert

Contact : metmap@orbifly.com




SOURCES & CREDITS :

   NOAA